Phoenix, AZ

4:11 PM MST on September 03, 2015 (GMT -0700)
Arroyo Rojo | | Change Station
CLOSE
Current Station
Personal Weather Station
Location: Phoenix, AZ
Elevation: 1476 ft
Nearby Weather Stations

Elev 1476 ft 33.68 °N, 112.06 °W | Updated 1 minute ago

Partly Cloudy
Partly Cloudy
98.1 °F
Feels Like 99 °F
N
2.0
Wind Variable Wind from East
Gusts 6.0 mph

Today
High -- | Low -- °F
--% Chance of Precip.
Yesterday
High -- | Low -- °F
Precip. -- in
6:03 AM 6:51 PM
Waning Gibbous, 66% visible
Pressure 29.70 in
Visibility 10.0 miles
Clouds Few 3300 ft
Heat Index 99 °F
Dew Point 61 °F
Humidity 30%
Rainfall 0.00 in
Snow Depth Not available.
UV 4 out of 12
Pollen 2.90 out of 12
Air Quality Not available.
Flu Activity Not available.
METAR KDVT 032253Z 16013KT 10SM FEW033 34/14 A2977 RMK AO2 SLP055 T03440144
Pressure 29.70 in
Visibility 10.0 miles
Clouds Few 3300 ft
Heat Index 99 °F
Dew Point 61 °F
Humidity 30%
Rainfall 0.00 in
Snow Depth Not available.
UV 4 out of 12
Pollen 2.90 out of 12
Air Quality Not available.
Flu Activity Not available.
METAR KDVT 032253Z 16013KT 10SM FEW033 34/14 A2977 RMK AO2 SLP055 T03440144

10-Day Weather Forecast

×

Almanac

Astronomy

Sep. 03, 2015 Rise Set
Actual Time
Civil Twilight
Nautical Twilight
Astronomical Twilight
Moon
Length of Visible Light
Length of Day
Tomorrow will be .
, % of the Moon is Illuminated

Today's Extremes

State Highs State Lows

Community

WunderPhotos

Upload Photos

1,852,060 photos uploaded!

WunderBlogs® & News

Nearby

Air Quality

  Air Quality AQ Index Pollutant
Not available.

Snow Depth

Station Depth Elevation

Earthquake Activity

City Distance Mag. Time & Date
Minimum magnitude displayed is 2.5.

Coastal Water Temperatures

Place Temperature

Stations

Nearby Weather Stations

Station Location Temp. Windchill Dew Point Humidity Wind Precip. Elev Updated Type